sensor_id;sensor_type;location;lat;lon;timestamp;temperature;humidity
62154;DHT22;48140;45.486;9.226;2023-12-28T00:00:38;10.40;99.90
62154;DHT22;48140;45.486;9.226;2023-12-28T00:03:03;10.30;99.90
62154;DHT22;48140;45.486;9.226;2023-12-28T00:05:29;10.30;99.90
62154;DHT22;48140;45.486;9.226;2023-12-28T00:07:55;10.50;99.90
62154;DHT22;48140;45.486;9.226;2023-12-28T00:10:26;10.30;99.90
62154;DHT22;48140;45.486;9.226;2023-12-28T00:12:51;10.20;99.90
62154;DHT22;48140;45.486;9.226;2023-12-28T00:15:17;10.30;99.90
62154;DHT22;48140;45.486;9.226;2023-12-28T00:17:42;10.30;99.90
62154;DHT22;48140;45.486;9.226;2023-12-28T00:20:08;10.20;99.90
62154;DHT22;48140;45.486;9.226;2023-12-28T00:22:33;10.30;99.90
62154;DHT22;48140;45.486;9.226;2023-12-28T00:24:59;10.20;99.90
62154;DHT22;48140;45.486;9.226;2023-12-28T00:27:24;10.20;99.90
62154;DHT22;48140;45.486;9.226;2023-12-28T00:29:50;10.20;99.90
62154;DHT22;48140;45.486;9.226;2023-12-28T00:32:15;10.20;99.90
62154;DHT22;48140;45.486;9.226;2023-12-28T00:34:41;10.20;99.90
62154;DHT22;48140;45.486;9.226;2023-12-28T00:37:06;10.20;99.90
62154;DHT22;48140;45.486;9.226;2023-12-28T00:39:32;10.20;99.90
62154;DHT22;48140;45.486;9.226;2023-12-28T00:41:58;10.10;99.90
62154;DHT22;48140;45.486;9.226;2023-12-28T00:44:23;10.20;99.90
62154;DHT22;48140;45.486;9.226;2023-12-28T00:46:49;10.10;99.90
62154;DHT22;48140;45.486;9.226;2023-12-28T00:49:14;10.10;99.90
62154;DHT22;48140;45.486;9.226;2023-12-28T00:51:39;10.10;99.90
62154;DHT22;48140;45.486;9.226;2023-12-28T00:54:05;10.10;99.90
62154;DHT22;48140;45.486;9.226;2023-12-28T00:56:30;10.20;99.90
62154;DHT22;48140;45.486;9.226;2023-12-28T00:58:56;10.20;99.90
62154;DHT22;48140;45.486;9.226;2023-12-28T01:01:21;10.10;99.90
62154;DHT22;48140;45.486;9.226;2023-12-28T01:03:47;10.10;99.90
62154;DHT22;48140;45.486;9.226;2023-12-28T01:06:12;10.30;99.90
62154;DHT22;48140;45.486;9.226;2023-12-28T01:08:38;10.00;99.90
62154;DHT22;48140;45.486;9.226;2023-12-28T01:11:04;10.00;99.90
62154;DHT22;48140;45.486;9.226;2023-12-28T01:13:29;10.00;99.90
62154;DHT22;48140;45.486;9.226;2023-12-28T01:15:56;10.00;99.90
62154;DHT22;48140;45.486;9.226;2023-12-28T01:18:21;10.00;99.90
62154;DHT22;48140;45.486;9.226;2023-12-28T01:20:47;10.00;99.90
62154;DHT22;48140;45.486;9.226;2023-12-28T01:23:12;10.00;99.90
62154;DHT22;48140;45.486;9.226;2023-12-28T01:25:38;10.10;99.90
62154;DHT22;48140;45.486;9.226;2023-12-28T01:28:03;10.00;99.90
62154;DHT22;48140;45.486;9.226;2023-12-28T01:30:29;10.00;99.90
62154;DHT22;48140;45.486;9.226;2023-12-28T01:32:55;9.90;99.90
62154;DHT22;48140;45.486;9.226;2023-12-28T01:35:21;9.90;99.90
62154;DHT22;48140;45.486;9.226;2023-12-28T01:37:46;9.90;99.90
62154;DHT22;48140;45.486;9.226;2023-12-28T01:40:11;9.90;99.90
62154;DHT22;48140;45.486;9.226;2023-12-28T01:42:37;9.80;99.90
62154;DHT22;48140;45.486;9.226;2023-12-28T01:45:03;9.80;99.90
62154;DHT22;48140;45.486;9.226;2023-12-28T01:47:28;9.80;99.90
62154;DHT22;48140;45.486;9.226;2023-12-28T01:49:55;9.80;99.90
62154;DHT22;48140;45.486;9.226;2023-12-28T01:52:21;9.70;99.90
62154;DHT22;48140;45.486;9.226;2023-12-28T01:54:46;9.70;99.90
62154;DHT22;48140;45.486;9.226;2023-12-28T01:57:13;9.70;99.90
62154;DHT22;48140;45.486;9.226;2023-12-28T01:59:39;9.70;99.90
62154;DHT22;48140;45.486;9.226;2023-12-28T02:02:04;9.70;99.90
62154;DHT22;48140;45.486;9.226;2023-12-28T02:04:30;9.70;99.90
62154;DHT22;48140;45.486;9.226;2023-12-28T02:06:56;9.70;99.90
62154;DHT22;48140;45.486;9.226;2023-12-28T02:09:22;9.70;99.90
62154;DHT22;48140;45.486;9.226;2023-12-28T02:11:48;9.70;99.90
62154;DHT22;48140;45.486;9.226;2023-12-28T02:14:14;9.70;99.90
62154;DHT22;48140;45.486;9.226;2023-12-28T02:16:41;9.70;99.90
62154;DHT22;48140;45.486;9.226;2023-12-28T02:19:18;9.70;99.90
62154;DHT22;48140;45.486;9.226;2023-12-28T02:21:47;9.60;99.90
62154;DHT22;48140;45.486;9.226;2023-12-28T02:24:13;9.60;99.90
62154;DHT22;48140;45.486;9.226;2023-12-28T02:26:38;9.60;99.90
62154;DHT22;48140;45.486;9.226;2023-12-28T02:29:03;9.50;99.90
62154;DHT22;48140;45.486;9.226;2023-12-28T02:31:34;9.60;99.90
62154;DHT22;48140;45.486;9.226;2023-12-28T02:34:05;9.60;99.90
62154;DHT22;48140;45.486;9.226;2023-12-28T02:36:31;9.50;99.90
62154;DHT22;48140;45.486;9.226;2023-12-28T02:38:59;9.60;99.90
62154;DHT22;48140;45.486;9.226;2023-12-28T02:41:28;9.60;99.90
62154;DHT22;48140;45.486;9.226;2023-12-28T02:43:55;9.60;99.90
62154;DHT22;48140;45.486;9.226;2023-12-28T02:46:20;9.60;99.90
62154;DHT22;48140;45.486;9.226;2023-12-28T02:48:46;9.60;99.90
62154;DHT22;48140;45.486;9.226;2023-12-28T02:51:12;9.60;99.90
62154;DHT22;48140;45.486;9.226;2023-12-28T02:53:37;9.60;99.90
62154;DHT22;48140;45.486;9.226;2023-12-28T02:56:03;9.60;99.90
62154;DHT22;48140;45.486;9.226;2023-12-28T02:58:28;9.70;99.90
62154;DHT22;48140;45.486;9.226;2023-12-28T03:00:54;9.60;99.90
62154;DHT22;48140;45.486;9.226;2023-12-28T03:03:19;9.60;99.90
62154;DHT22;48140;45.486;9.226;2023-12-28T03:05:45;9.60;99.90
62154;DHT22;48140;45.486;9.226;2023-12-28T03:08:11;9.70;99.90
62154;DHT22;48140;45.486;9.226;2023-12-28T03:10:36;9.70;99.90
62154;DHT22;48140;45.486;9.226;2023-12-28T03:13:02;9.70;99.90
62154;DHT22;48140;45.486;9.226;2023-12-28T03:15:28;9.70;99.90
62154;DHT22;48140;45.486;9.226;2023-12-28T03:17:55;9.80;99.90
62154;DHT22;48140;45.486;9.226;2023-12-28T03:20:21;9.70;99.90
62154;DHT22;48140;45.486;9.226;2023-12-28T03:22:46;9.80;99.90
62154;DHT22;48140;45.486;9.226;2023-12-28T03:25:12;9.80;99.90
62154;DHT22;48140;45.486;9.226;2023-12-28T03:27:37;9.80;99.90
62154;DHT22;48140;45.486;9.226;2023-12-28T03:30:03;9.80;99.90
62154;DHT22;48140;45.486;9.226;2023-12-28T03:32:28;9.80;99.90
62154;DHT22;48140;45.486;9.226;2023-12-28T03:34:54;9.80;99.90
62154;DHT22;48140;45.486;9.226;2023-12-28T03:37:20;9.80;99.90
62154;DHT22;48140;45.486;9.226;2023-12-28T03:39:45;9.80;99.90
62154;DHT22;48140;45.486;9.226;2023-12-28T03:42:11;9.80;99.90
62154;DHT22;48140;45.486;9.226;2023-12-28T03:44:36;9.80;99.90
62154;DHT22;48140;45.486;9.226;2023-12-28T03:47:02;9.80;99.90
62154;DHT22;48140;45.486;9.226;2023-12-28T03:49:27;9.90;99.90
62154;DHT22;48140;45.486;9.226;2023-12-28T03:51:53;9.80;99.90
62154;DHT22;48140;45.486;9.226;2023-12-28T03:54:18;9.90;99.90
62154;DHT22;48140;45.486;9.226;2023-12-28T03:56:45;9.90;99.90
62154;DHT22;48140;45.486;9.226;2023-12-28T03:59:11;9.90;99.90
62154;DHT22;48140;45.486;9.226;2023-12-28T04:01:37;9.90;99.90
62154;DHT22;48140;45.486;9.226;2023-12-28T04:04:02;9.90;99.90
62154;DHT22;48140;45.486;9.226;2023-12-28T04:06:28;9.90;99.90
62154;DHT22;48140;45.486;9.226;2023-12-28T04:08:54;9.80;99.90
62154;DHT22;48140;45.486;9.226;2023-12-28T04:11:21;9.80;99.90
62154;DHT22;48140;45.486;9.226;2023-12-28T04:13:49;9.80;99.90
62154;DHT22;48140;45.486;9.226;2023-12-28T04:16:15;9.80;99.90
62154;DHT22;48140;45.486;9.226;2023-12-28T04:18:41;9.80;99.90
62154;DHT22;48140;45.486;9.226;2023-12-28T04:21:09;9.80;99.90
62154;DHT22;48140;45.486;9.226;2023-12-28T04:23:38;9.70;99.90
62154;DHT22;48140;45.486;9.226;2023-12-28T04:26:04;9.80;99.90
62154;DHT22;48140;45.486;9.226;2023-12-28T04:28:30;9.70;99.90
62154;DHT22;48140;45.486;9.226;2023-12-28T04:30:55;9.70;99.90
62154;DHT22;48140;45.486;9.226;2023-12-28T04:33:21;9.70;99.90
62154;DHT22;48140;45.486;9.226;2023-12-28T04:35:46;9.70;99.90
62154;DHT22;48140;45.486;9.226;2023-12-28T04:38:12;9.60;99.90
62154;DHT22;48140;45.486;9.226;2023-12-28T04:40:37;9.70;99.90
62154;DHT22;48140;45.486;9.226;2023-12-28T04:43:03;9.60;99.90
62154;DHT22;48140;45.486;9.226;2023-12-28T04:45:28;9.60;99.90
62154;DHT22;48140;45.486;9.226;2023-12-28T04:47:54;9.50;99.90
62154;DHT22;48140;45.486;9.226;2023-12-28T04:50:19;9.60;99.90
62154;DHT22;48140;45.486;9.226;2023-12-28T04:52:45;9.60;99.90
62154;DHT22;48140;45.486;9.226;2023-12-28T04:55:10;9.60;99.90
62154;DHT22;48140;45.486;9.226;2023-12-28T04:57:36;9.60;99.90
62154;DHT22;48140;45.486;9.226;2023-12-28T05:00:02;9.60;99.90
62154;DHT22;48140;45.486;9.226;2023-12-28T05:02:28;9.50;99.90
62154;DHT22;48140;45.486;9.226;2023-12-28T05:04:54;9.60;99.90
62154;DHT22;48140;45.486;9.226;2023-12-28T05:07:19;9.60;99.90
62154;DHT22;48140;45.486;9.226;2023-12-28T05:09:45;9.60;99.90
62154;DHT22;48140;45.486;9.226;2023-12-28T05:12:10;9.60;99.90
62154;DHT22;48140;45.486;9.226;2023-12-28T05:14:36;9.60;99.90
62154;DHT22;48140;45.486;9.226;2023-12-28T05:17:01;9.60;99.90
62154;DHT22;48140;45.486;9.226;2023-12-28T05:19:27;9.60;99.90
62154;DHT22;48140;45.486;9.226;2023-12-28T05:21:53;9.60;99.90
62154;DHT22;48140;45.486;9.226;2023-12-28T05:24:18;9.50;99.90
62154;DHT22;48140;45.486;9.226;2023-12-28T05:26:43;9.50;99.90
62154;DHT22;48140;45.486;9.226;2023-12-28T05:29:09;9.50;99.90
62154;DHT22;48140;45.486;9.226;2023-12-28T05:31:34;9.50;99.90
62154;DHT22;48140;45.486;9.226;2023-12-28T05:34:00;9.60;99.90
62154;DHT22;48140;45.486;9.226;2023-12-28T05:36:26;9.50;99.90
62154;DHT22;48140;45.486;9.226;2023-12-28T05:38:52;9.60;99.90
62154;DHT22;48140;45.486;9.226;2023-12-28T05:41:17;9.60;99.90
62154;DHT22;48140;45.486;9.226;2023-12-28T05:43:43;9.60;99.90
62154;DHT22;48140;45.486;9.226;2023-12-28T05:46:08;9.60;99.90
62154;DHT22;48140;45.486;9.226;2023-12-28T05:48:34;9.60;99.90
62154;DHT22;48140;45.486;9.226;2023-12-28T05:50:59;9.50;99.90
62154;DHT22;48140;45.486;9.226;2023-12-28T05:53:25;9.60;99.90
62154;DHT22;48140;45.486;9.226;2023-12-28T05:55:52;9.60;99.90
62154;DHT22;48140;45.486;9.226;2023-12-28T05:58:17;9.60;99.90
62154;DHT22;48140;45.486;9.226;2023-12-28T06:00:43;9.60;99.90
62154;DHT22;48140;45.486;9.226;2023-12-28T06:03:09;9.60;99.90
62154;DHT22;48140;45.486;9.226;2023-12-28T06:05:34;9.60;99.90
62154;DHT22;48140;45.486;9.226;2023-12-28T06:08:00;9.60;99.90
62154;DHT22;48140;45.486;9.226;2023-12-28T06:10:25;9.60;99.90
62154;DHT22;48140;45.486;9.226;2023-12-28T06:12:51;9.60;99.90
62154;DHT22;48140;45.486;9.226;2023-12-28T06:15:16;9.60;99.90
62154;DHT22;48140;45.486;9.226;2023-12-28T06:17:42;9.60;99.90
62154;DHT22;48140;45.486;9.226;2023-12-28T06:20:08;9.70;99.90
62154;DHT22;48140;45.486;9.226;2023-12-28T06:22:36;9.70;99.90
62154;DHT22;48140;45.486;9.226;2023-12-28T06:25:01;9.70;99.90
62154;DHT22;48140;45.486;9.226;2023-12-28T06:27:27;9.70;99.90
62154;DHT22;48140;45.486;9.226;2023-12-28T06:29:52;9.70;99.90
62154;DHT22;48140;45.486;9.226;2023-12-28T06:32:18;9.90;99.90
62154;DHT22;48140;45.486;9.226;2023-12-28T06:34:43;9.80;99.90
62154;DHT22;48140;45.486;9.226;2023-12-28T06:37:09;9.80;99.90
62154;DHT22;48140;45.486;9.226;2023-12-28T06:39:34;9.90;99.90
62154;DHT22;48140;45.486;9.226;2023-12-28T06:42:00;9.90;99.90
62154;DHT22;48140;45.486;9.226;2023-12-28T06:44:25;9.90;99.90
62154;DHT22;48140;45.486;9.226;2023-12-28T06:46:52;9.90;99.90
62154;DHT22;48140;45.486;9.226;2023-12-28T06:49:17;9.90;99.90
62154;DHT22;48140;45.486;9.226;2023-12-28T06:51:43;9.80;99.90
62154;DHT22;48140;45.486;9.226;2023-12-28T06:54:10;9.70;99.90
62154;DHT22;48140;45.486;9.226;2023-12-28T06:56:36;9.80;99.90
62154;DHT22;48140;45.486;9.226;2023-12-28T06:59:01;9.80;99.90
62154;DHT22;48140;45.486;9.226;2023-12-28T07:01:27;9.70;99.90
62154;DHT22;48140;45.486;9.226;2023-12-28T07:03:52;9.70;99.90
62154;DHT22;48140;45.486;9.226;2023-12-28T07:06:20;9.70;99.90
62154;DHT22;48140;45.486;9.226;2023-12-28T07:08:45;9.70;99.90
62154;DHT22;48140;45.486;9.226;2023-12-28T07:11:11;9.70;99.90
62154;DHT22;48140;45.486;9.226;2023-12-28T07:13:37;9.70;99.90
62154;DHT22;48140;45.486;9.226;2023-12-28T07:16:02;9.70;99.90
62154;DHT22;48140;45.486;9.226;2023-12-28T07:18:28;9.60;99.90
62154;DHT22;48140;45.486;9.226;2023-12-28T07:20:53;9.60;99.90
62154;DHT22;48140;45.486;9.226;2023-12-28T07:23:19;9.60;99.90
62154;DHT22;48140;45.486;9.226;2023-12-28T07:25:45;9.60;99.90
62154;DHT22;48140;45.486;9.226;2023-12-28T07:28:11;9.60;99.90
62154;DHT22;48140;45.486;9.226;2023-12-28T07:30:37;9.60;99.90
62154;DHT22;48140;45.486;9.226;2023-12-28T07:33:02;9.70;99.90
62154;DHT22;48140;45.486;9.226;2023-12-28T07:35:28;9.60;99.90
62154;DHT22;48140;45.486;9.226;2023-12-28T07:37:53;9.70;99.90
62154;DHT22;48140;45.486;9.226;2023-12-28T07:40:19;9.60;99.90
62154;DHT22;48140;45.486;9.226;2023-12-28T07:42:45;9.70;99.90
62154;DHT22;48140;45.486;9.226;2023-12-28T07:45:10;9.70;99.90
62154;DHT22;48140;45.486;9.226;2023-12-28T07:47:36;9.80;99.90
62154;DHT22;48140;45.486;9.226;2023-12-28T07:50:01;9.80;99.90
62154;DHT22;48140;45.486;9.226;2023-12-28T07:52:28;9.70;99.90
62154;DHT22;48140;45.486;9.226;2023-12-28T07:54:53;9.70;99.90
62154;DHT22;48140;45.486;9.226;2023-12-28T07:57:19;9.70;99.90
62154;DHT22;48140;45.486;9.226;2023-12-28T07:59:44;9.90;99.90
62154;DHT22;48140;45.486;9.226;2023-12-28T08:02:10;9.90;99.90
62154;DHT22;48140;45.486;9.226;2023-12-28T08:04:35;9.90;99.90
62154;DHT22;48140;45.486;9.226;2023-12-28T08:07:01;9.90;99.90
62154;DHT22;48140;45.486;9.226;2023-12-28T08:09:26;9.90;99.90
62154;DHT22;48140;45.486;9.226;2023-12-28T08:11:52;9.90;99.90
62154;DHT22;48140;45.486;9.226;2023-12-28T08:14:17;9.90;99.90
62154;DHT22;48140;45.486;9.226;2023-12-28T08:16:44;9.90;99.90
62154;DHT22;48140;45.486;9.226;2023-12-28T08:19:09;9.90;99.90
62154;DHT22;48140;45.486;9.226;2023-12-28T08:21:36;9.90;99.90
62154;DHT22;48140;45.486;9.226;2023-12-28T08:24:01;9.90;99.90
62154;DHT22;48140;45.486;9.226;2023-12-28T08:26:27;10.00;99.90
62154;DHT22;48140;45.486;9.226;2023-12-28T08:28:53;9.90;99.90
62154;DHT22;48140;45.486;9.226;2023-12-28T08:31:18;9.90;99.90
62154;DHT22;48140;45.486;9.226;2023-12-28T08:33:44;10.00;99.90
62154;DHT22;48140;45.486;9.226;2023-12-28T08:36:09;10.00;99.90
62154;DHT22;48140;45.486;9.226;2023-12-28T08:38:36;10.00;99.90
62154;DHT22;48140;45.486;9.226;2023-12-28T08:41:02;10.00;99.90
62154;DHT22;48140;45.486;9.226;2023-12-28T08:43:29;9.90;99.90
62154;DHT22;48140;45.486;9.226;2023-12-28T08:45:54;10.00;99.90
62154;DHT22;48140;45.486;9.226;2023-12-28T08:48:20;10.00;99.90
62154;DHT22;48140;45.486;9.226;2023-12-28T08:50:45;10.00;99.90
62154;DHT22;48140;45.486;9.226;2023-12-28T08:53:11;10.10;99.90
62154;DHT22;48140;45.486;9.226;2023-12-28T08:55:36;10.10;99.90
62154;DHT22;48140;45.486;9.226;2023-12-28T08:58:02;10.10;99.90
62154;DHT22;48140;45.486;9.226;2023-12-28T09:00:27;10.00;99.90
62154;DHT22;48140;45.486;9.226;2023-12-28T09:02:53;10.00;99.90
62154;DHT22;48140;45.486;9.226;2023-12-28T09:05:18;10.10;99.90
62154;DHT22;48140;45.486;9.226;2023-12-28T09:07:44;10.00;99.90
62154;DHT22;48140;45.486;9.226;2023-12-28T09:10:10;10.00;99.90
62154;DHT22;48140;45.486;9.226;2023-12-28T09:12:36;10.10;99.90
62154;DHT22;48140;45.486;9.226;2023-12-28T09:15:04;10.00;99.90
62154;DHT22;48140;45.486;9.226;2023-12-28T09:17:30;10.10;99.90
62154;DHT22;48140;45.486;9.226;2023-12-28T09:19:56;10.10;99.90
62154;DHT22;48140;45.486;9.226;2023-12-28T09:22:23;10.10;99.90
62154;DHT22;48140;45.486;9.226;2023-12-28T09:24:49;10.10;99.90
62154;DHT22;48140;45.486;9.226;2023-12-28T09:27:14;10.10;99.90
62154;DHT22;48140;45.486;9.226;2023-12-28T09:29:39;10.20;99.90
62154;DHT22;48140;45.486;9.226;2023-12-28T09:32:05;10.10;99.90
62154;DHT22;48140;45.486;9.226;2023-12-28T09:34:31;10.10;99.90
62154;DHT22;48140;45.486;9.226;2023-12-28T09:36:56;10.10;99.90
62154;DHT22;48140;45.486;9.226;2023-12-28T09:39:22;10.10;99.90
62154;DHT22;48140;45.486;9.226;2023-12-28T09:41:48;10.10;99.90
62154;DHT22;48140;45.486;9.226;2023-12-28T09:44:14;10.10;99.90
62154;DHT22;48140;45.486;9.226;2023-12-28T09:46:43;10.10;99.90
62154;DHT22;48140;45.486;9.226;2023-12-28T09:49:12;10.10;99.90
62154;DHT22;48140;45.486;9.226;2023-12-28T09:51:39;10.20;99.90
62154;DHT22;48140;45.486;9.226;2023-12-28T09:59:29;10.20;99.90
62154;DHT22;48140;45.486;9.226;2023-12-28T10:01:57;10.30;99.90
62154;DHT22;48140;45.486;9.226;2023-12-28T10:04:23;10.10;99.90
62154;DHT22;48140;45.486;9.226;2023-12-28T10:14:30;10.20;99.90
62154;DHT22;48140;45.486;9.226;2023-12-28T10:22:06;10.30;99.90
62154;DHT22;48140;45.486;9.226;2023-12-28T10:24:32;10.30;99.90
62154;DHT22;48140;45.486;9.226;2023-12-28T10:29:33;10.40;99.90
62154;DHT22;48140;45.486;9.226;2023-12-28T10:39:45;10.50;99.90
62154;DHT22;48140;45.486;9.226;2023-12-28T10:42:11;10.50;99.90
62154;DHT22;48140;45.486;9.226;2023-12-28T10:52:26;10.40;99.90
62154;DHT22;48140;45.486;9.226;2023-12-28T11:02:48;10.40;99.90
62154;DHT22;48140;45.486;9.226;2023-12-28T11:05:17;10.40;99.90
62154;DHT22;48140;45.486;9.226;2023-12-28T11:07:43;10.40;99.90
62154;DHT22;48140;45.486;9.226;2023-12-28T11:10:10;10.40;99.90
62154;DHT22;48140;45.486;9.226;2023-12-28T11:12:37;10.40;99.90
62154;DHT22;48140;45.486;9.226;2023-12-28T11:15:03;10.40;99.90
62154;DHT22;48140;45.486;9.226;2023-12-28T11:17:30;10.40;99.90
62154;DHT22;48140;45.486;9.226;2023-12-28T11:19:56;10.30;99.90
62154;DHT22;48140;45.486;9.226;2023-12-28T11:22:22;10.50;99.90
62154;DHT22;48140;45.486;9.226;2023-12-28T11:24:47;10.50;99.90
62154;DHT22;48140;45.486;9.226;2023-12-28T11:27:13;10.40;99.90
62154;DHT22;48140;45.486;9.226;2023-12-28T11:29:38;10.40;99.90
62154;DHT22;48140;45.486;9.226;2023-12-28T11:32:06;10.40;99.90
62154;DHT22;48140;45.486;9.226;2023-12-28T11:34:33;10.30;99.90
62154;DHT22;48140;45.486;9.226;2023-12-28T11:37:00;10.40;99.90
62154;DHT22;48140;45.486;9.226;2023-12-28T11:39:34;10.40;99.90
62154;DHT22;48140;45.486;9.226;2023-12-28T11:42:00;10.50;99.90
62154;DHT22;48140;45.486;9.226;2023-12-28T11:44:28;10.60;99.90
62154;DHT22;48140;45.486;9.226;2023-12-28T11:46:54;10.60;99.90
62154;DHT22;48140;45.486;9.226;2023-12-28T11:49:24;10.70;99.90
62154;DHT22;48140;45.486;9.226;2023-12-28T11:51:54;10.70;99.90
62154;DHT22;48140;45.486;9.226;2023-12-28T11:54:19;10.80;99.90
62154;DHT22;48140;45.486;9.226;2023-12-28T11:56:45;10.80;99.90
62154;DHT22;48140;45.486;9.226;2023-12-28T11:59:10;10.70;99.90
62154;DHT22;48140;45.486;9.226;2023-12-28T12:01:36;10.70;99.90
62154;DHT22;48140;45.486;9.226;2023-12-28T12:04:01;10.60;99.90
62154;DHT22;48140;45.486;9.226;2023-12-28T12:06:27;10.60;99.90
62154;DHT22;48140;45.486;9.226;2023-12-28T12:08:54;10.60;99.90
62154;DHT22;48140;45.486;9.226;2023-12-28T12:11:19;10.60;99.90
62154;DHT22;48140;45.486;9.226;2023-12-28T12:13:45;10.60;99.90
62154;DHT22;48140;45.486;9.226;2023-12-28T12:16:13;10.60;99.90
62154;DHT22;48140;45.486;9.226;2023-12-28T12:18:38;10.60;99.90
62154;DHT22;48140;45.486;9.226;2023-12-28T12:21:04;10.60;99.90
62154;DHT22;48140;45.486;9.226;2023-12-28T12:23:31;10.60;99.90
62154;DHT22;48140;45.486;9.226;2023-12-28T12:25:57;10.60;99.90
62154;DHT22;48140;45.486;9.226;2023-12-28T12:28:23;10.60;99.90
62154;DHT22;48140;45.486;9.226;2023-12-28T12:30:54;10.70;99.90
62154;DHT22;48140;45.486;9.226;2023-12-28T12:33:23;10.70;99.90
62154;DHT22;48140;45.486;9.226;2023-12-28T12:35:49;10.70;99.90
62154;DHT22;48140;45.486;9.226;2023-12-28T12:38:15;10.60;99.90
62154;DHT22;48140;45.486;9.226;2023-12-28T12:40:41;10.60;99.90
62154;DHT22;48140;45.486;9.226;2023-12-28T12:43:06;10.50;99.90
62154;DHT22;48140;45.486;9.226;2023-12-28T12:45:35;10.50;99.90
62154;DHT22;48140;45.486;9.226;2023-12-28T12:48:02;10.60;99.90
62154;DHT22;48140;45.486;9.226;2023-12-28T12:50:27;10.60;99.90
62154;DHT22;48140;45.486;9.226;2023-12-28T12:52:53;10.60;99.90
62154;DHT22;48140;45.486;9.226;2023-12-28T12:55:18;10.70;99.90
62154;DHT22;48140;45.486;9.226;2023-12-28T12:57:44;10.70;99.90
62154;DHT22;48140;45.486;9.226;2023-12-28T13:00:10;10.60;99.90
62154;DHT22;48140;45.486;9.226;2023-12-28T13:02:37;10.60;99.90
62154;DHT22;48140;45.486;9.226;2023-12-28T13:05:02;10.60;99.90
62154;DHT22;48140;45.486;9.226;2023-12-28T13:07:30;10.60;99.90
62154;DHT22;48140;45.486;9.226;2023-12-28T13:09:55;10.70;99.90
62154;DHT22;48140;45.486;9.226;2023-12-28T13:12:21;10.70;99.90
62154;DHT22;48140;45.486;9.226;2023-12-28T13:14:46;10.70;99.90
62154;DHT22;48140;45.486;9.226;2023-12-28T13:17:12;10.70;99.90
62154;DHT22;48140;45.486;9.226;2023-12-28T13:19:37;10.70;99.90
62154;DHT22;48140;45.486;9.226;2023-12-28T13:22:03;10.70;99.90
62154;DHT22;48140;45.486;9.226;2023-12-28T13:24:30;10.60;99.90
62154;DHT22;48140;45.486;9.226;2023-12-28T13:26:56;10.60;99.90
62154;DHT22;48140;45.486;9.226;2023-12-28T13:29:22;10.60;99.90
62154;DHT22;48140;45.486;9.226;2023-12-28T13:31:47;10.50;99.90
62154;DHT22;48140;45.486;9.226;2023-12-28T13:34:16;10.50;99.90
62154;DHT22;48140;45.486;9.226;2023-12-28T13:36:41;10.40;99.90
62154;DHT22;48140;45.486;9.226;2023-12-28T13:39:07;10.40;99.90
62154;DHT22;48140;45.486;9.226;2023-12-28T13:41:37;10.40;99.90
62154;DHT22;48140;45.486;9.226;2023-12-28T13:44:02;10.40;99.90
62154;DHT22;48140;45.486;9.226;2023-12-28T13:46:30;10.30;99.90
62154;DHT22;48140;45.486;9.226;2023-12-28T13:48:56;10.40;99.90
62154;DHT22;48140;45.486;9.226;2023-12-28T13:51:22;10.50;99.90
62154;DHT22;48140;45.486;9.226;2023-12-28T13:53:47;10.50;99.90
62154;DHT22;48140;45.486;9.226;2023-12-28T13:56:13;10.50;99.90
62154;DHT22;48140;45.486;9.226;2023-12-28T13:58:41;10.50;99.90
62154;DHT22;48140;45.486;9.226;2023-12-28T14:01:07;10.60;99.90
62154;DHT22;48140;45.486;9.226;2023-12-28T14:03:32;10.60;99.90
62154;DHT22;48140;45.486;9.226;2023-12-28T14:05:58;10.50;99.90
62154;DHT22;48140;45.486;9.226;2023-12-28T14:08:23;10.50;99.90
62154;DHT22;48140;45.486;9.226;2023-12-28T14:10:49;10.50;99.90
62154;DHT22;48140;45.486;9.226;2023-12-28T14:13:14;10.50;99.90
62154;DHT22;48140;45.486;9.226;2023-12-28T14:15:40;10.50;99.90
62154;DHT22;48140;45.486;9.226;2023-12-28T14:18:05;10.50;99.90
62154;DHT22;48140;45.486;9.226;2023-12-28T14:20:32;10.50;99.90
62154;DHT22;48140;45.486;9.226;2023-12-28T14:22:57;10.50;99.90
62154;DHT22;48140;45.486;9.226;2023-12-28T14:25:23;10.50;99.90
62154;DHT22;48140;45.486;9.226;2023-12-28T14:27:49;10.50;99.90
62154;DHT22;48140;45.486;9.226;2023-12-28T14:30:15;10.50;99.90
62154;DHT22;48140;45.486;9.226;2023-12-28T14:32:40;10.50;99.90
62154;DHT22;48140;45.486;9.226;2023-12-28T14:37:41;10.50;99.90
62154;DHT22;48140;45.486;9.226;2023-12-28T14:58:14;10.40;99.90
62154;DHT22;48140;45.486;9.226;2023-12-28T15:00:43;10.40;99.90
62154;DHT22;48140;45.486;9.226;2023-12-28T15:03:08;10.40;99.90
62154;DHT22;48140;45.486;9.226;2023-12-28T15:05:34;10.40;99.90
62154;DHT22;48140;45.486;9.226;2023-12-28T15:08:00;10.40;99.90
62154;DHT22;48140;45.486;9.226;2023-12-28T15:10:25;10.50;99.90
62154;DHT22;48140;45.486;9.226;2023-12-28T15:12:51;10.40;99.90
62154;DHT22;48140;45.486;9.226;2023-12-28T15:15:16;10.40;99.90
62154;DHT22;48140;45.486;9.226;2023-12-28T15:17:42;10.50;99.90
62154;DHT22;48140;45.486;9.226;2023-12-28T15:20:08;10.50;99.90
62154;DHT22;48140;45.486;9.226;2023-12-28T15:22:34;10.40;99.90
62154;DHT22;48140;45.486;9.226;2023-12-28T15:24:59;10.40;99.90
62154;DHT22;48140;45.486;9.226;2023-12-28T15:27:25;10.40;99.90
62154;DHT22;48140;45.486;9.226;2023-12-28T15:32:26;10.40;99.90
62154;DHT22;48140;45.486;9.226;2023-12-28T15:34:52;10.30;99.90
62154;DHT22;48140;45.486;9.226;2023-12-28T15:37:17;10.40;99.90
62154;DHT22;48140;45.486;9.226;2023-12-28T15:39:43;10.40;99.90
62154;DHT22;48140;45.486;9.226;2023-12-28T15:44:44;10.40;99.90
62154;DHT22;48140;45.486;9.226;2023-12-28T15:47:10;10.40;99.90
62154;DHT22;48140;45.486;9.226;2023-12-28T15:49:35;10.40;99.90
62154;DHT22;48140;45.486;9.226;2023-12-28T15:52:04;10.30;99.90
62154;DHT22;48140;45.486;9.226;2023-12-28T15:54:33;10.30;99.90
62154;DHT22;48140;45.486;9.226;2023-12-28T15:57:07;10.30;99.90
62154;DHT22;48140;45.486;9.226;2023-12-28T15:59:33;11.00;99.90
62154;DHT22;48140;45.486;9.226;2023-12-28T16:01:59;10.30;99.90
62154;DHT22;48140;45.486;9.226;2023-12-28T16:04:29;10.30;99.90
62154;DHT22;48140;45.486;9.226;2023-12-28T16:06:55;10.40;99.90
62154;DHT22;48140;45.486;9.226;2023-12-28T16:09:22;10.40;99.90
62154;DHT22;48140;45.486;9.226;2023-12-28T16:11:48;10.50;99.90
62154;DHT22;48140;45.486;9.226;2023-12-28T16:14:14;10.40;99.90
62154;DHT22;48140;45.486;9.226;2023-12-28T16:16:39;10.40;99.90
62154;DHT22;48140;45.486;9.226;2023-12-28T16:19:05;10.30;99.90
62154;DHT22;48140;45.486;9.226;2023-12-28T16:21:31;10.30;99.90
62154;DHT22;48140;45.486;9.226;2023-12-28T16:23:57;10.30;99.90
62154;DHT22;48140;45.486;9.226;2023-12-28T16:26:23;10.20;99.90
62154;DHT22;48140;45.486;9.226;2023-12-28T16:28:48;10.30;99.90
62154;DHT22;48140;45.486;9.226;2023-12-28T16:31:14;10.20;99.90
62154;DHT22;48140;45.486;9.226;2023-12-28T16:33:40;10.20;99.90
62154;DHT22;48140;45.486;9.226;2023-12-28T16:36:05;10.20;99.90
62154;DHT22;48140;45.486;9.226;2023-12-28T16:38:31;10.20;99.90